createdAt,value
2023-04-14T00:00:41.663Z,3.60
2023-04-14T00:03:09.282Z,8.47
2023-04-14T00:05:36.744Z,3.93
2023-04-14T00:08:03.945Z,4.20
2023-04-14T00:10:31.336Z,7.27
2023-04-14T00:12:58.613Z,11.23
2023-04-14T00:15:25.760Z,8.10
2023-04-14T00:17:53.175Z,7.40
2023-04-14T00:20:20.427Z,12.30
2023-04-14T00:22:47.573Z,9.83
2023-04-14T00:25:14.856Z,6.67
2023-04-14T00:27:41.901Z,4.63
2023-04-14T00:30:09.774Z,6.57
2023-04-14T00:32:36.885Z,8.60
2023-04-14T00:35:04.458Z,7.90
2023-04-14T00:37:31.574Z,6.43
2023-04-14T00:40:00.410Z,7.10
2023-04-14T00:42:27.598Z,6.40
2023-04-14T00:44:54.826Z,5.97
2023-04-14T00:47:23.198Z,5.50
2023-04-14T00:49:51.394Z,5.27
2023-04-14T00:52:22.223Z,5.40
2023-04-14T00:54:50.724Z,6.70
2023-04-14T00:57:19.573Z,7.10
2023-04-14T00:59:47.504Z,7.13
2023-04-14T01:02:18.073Z,4.93
2023-04-14T01:04:53.411Z,9.47
2023-04-14T01:07:24.041Z,3.33
2023-04-14T01:09:53.438Z,5.23
2023-04-14T01:12:56.229Z,4.43
2023-04-14T01:15:36.537Z,5.90
2023-04-14T01:18:34.733Z,4.27
2023-04-14T01:21:20.490Z,4.73
2023-04-14T01:24:24.490Z,3.83
2023-04-14T01:27:34.265Z,10.90
2023-04-14T01:30:36.416Z,7.70
2023-04-14T01:33:12.933Z,5.93
2023-04-14T01:35:53.333Z,5.27
2023-04-14T01:38:28.008Z,6.50
2023-04-14T01:41:00.778Z,4.40
2023-04-14T01:43:31.166Z,9.30
2023-04-14T01:46:07.018Z,5.50
2023-04-14T01:48:35.702Z,3.77
2023-04-14T01:51:06.565Z,6.33
2023-04-14T01:53:38.654Z,5.00
2023-04-14T01:56:09.046Z,8.27
2023-04-14T01:58:37.626Z,3.60
2023-04-14T02:01:07.950Z,5.43
2023-04-14T02:03:37.376Z,3.80
2023-04-14T02:06:06.483Z,6.50
2023-04-14T02:08:34.767Z,10.50
2023-04-14T02:11:03.147Z,5.63
2023-04-14T02:13:32.837Z,7.47
2023-04-14T02:16:02.139Z,7.37
2023-04-14T02:18:31.684Z,6.53
2023-04-14T02:21:01.637Z,3.37
2023-04-14T02:23:28.913Z,7.33
2023-04-14T02:26:11.196Z,5.33
2023-04-14T02:28:48.308Z,4.40
2023-04-14T02:31:21.520Z,10.20
2023-04-14T02:33:55.015Z,4.00
2023-04-14T02:36:35.125Z,7.03
2023-04-14T02:39:14.462Z,2.77
2023-04-14T02:41:44.654Z,12.27
2023-04-14T02:44:23.406Z,6.03
2023-04-14T02:47:07.005Z,7.53
2023-04-14T02:49:44.892Z,10.37
2023-04-14T02:52:16.127Z,11.73
2023-04-14T02:54:46.739Z,9.40
2023-04-14T02:57:15.031Z,8.50
2023-04-14T02:59:47.237Z,5.30
2023-04-14T03:02:17.686Z,9.37
2023-04-14T03:04:50.453Z,9.73
2023-04-14T03:07:27.486Z,7.13
2023-04-14T03:09:55.906Z,7.47
2023-04-14T03:12:25.700Z,6.13
2023-04-14T03:14:54.487Z,6.60
2023-04-14T03:17:22.443Z,7.30
2023-04-14T03:19:52.746Z,6.07
2023-04-14T03:22:22.277Z,9.23
2023-04-14T03:24:50.927Z,5.70
2023-04-14T03:27:22.963Z,7.80
2023-04-14T03:29:55.070Z,6.10
2023-04-14T03:32:26.188Z,5.50
2023-04-14T03:34:58.311Z,8.10
2023-04-14T03:37:28.797Z,8.47
2023-04-14T03:40:01.756Z,8.00
2023-04-14T03:42:35.844Z,8.60
2023-04-14T03:45:04.904Z,7.40
2023-04-14T03:47:35.476Z,6.30
2023-04-14T03:50:06.617Z,6.53
2023-04-14T03:52:36.427Z,9.80
2023-04-14T03:55:08.678Z,7.07
2023-04-14T03:57:39.708Z,14.40
2023-04-14T04:00:09.066Z,15.97
2023-04-14T04:02:44.898Z,16.13
2023-04-14T04:05:13.648Z,10.93
2023-04-14T04:07:44.502Z,6.90
2023-04-14T04:10:13.504Z,6.40
2023-04-14T04:12:43.743Z,11.10
2023-04-14T04:15:12.388Z,8.87
2023-04-14T04:17:42.888Z,11.40
2023-04-14T04:20:14.676Z,10.70
2023-04-14T04:22:45.557Z,6.37
2023-04-14T04:25:16.574Z,8.00
2023-04-14T04:27:53.083Z,7.60
2023-04-14T04:30:22.060Z,15.10
2023-04-14T04:32:49.538Z,5.83
2023-04-14T04:35:18.390Z,10.30
2023-04-14T04:37:49.851Z,10.43
2023-04-14T04:40:18.048Z,9.20
2023-04-14T04:42:46.662Z,11.43
2023-04-14T04:45:47.234Z,9.63
2023-04-14T04:48:14.687Z,14.13
2023-04-14T04:50:44.620Z,13.50
2023-04-14T04:53:13.422Z,9.20
2023-04-14T04:55:42.486Z,10.67
2023-04-14T04:58:10.686Z,18.93
2023-04-14T05:00:37.911Z,13.23
2023-04-14T05:03:05.451Z,9.83
2023-04-14T05:05:36.962Z,9.33
2023-04-14T05:08:04.499Z,15.60
2023-04-14T05:10:35.048Z,8.33
2023-04-14T05:13:02.117Z,11.33
2023-04-14T05:15:29.247Z,15.13
2023-04-14T05:20:23.662Z,10.30
2023-04-14T05:22:51.096Z,9.50
2023-04-14T05:25:18.271Z,10.03
2023-04-14T05:27:45.317Z,8.60
2023-04-14T05:30:13.344Z,13.63
2023-04-14T05:32:40.615Z,12.10
2023-04-14T05:35:08.749Z,21.47
2023-04-14T05:37:36.379Z,10.37
2023-04-14T05:40:04.117Z,9.90
2023-04-14T05:42:31.615Z,10.30
2023-04-14T05:44:58.804Z,21.40
2023-04-14T05:47:26.086Z,10.47
2023-04-14T05:49:53.150Z,11.67
2023-04-14T05:52:20.670Z,7.93
2023-04-14T05:54:47.916Z,16.50
2023-04-14T05:57:15.620Z,13.20
2023-04-14T05:59:42.915Z,10.53
2023-04-14T06:02:10.213Z,9.20
2023-04-14T06:04:37.897Z,21.33
2023-04-14T06:07:05.188Z,14.10
2023-04-14T06:09:32.196Z,13.53
2023-04-14T06:11:59.440Z,20.13
2023-04-14T06:14:26.514Z,21.47
2023-04-14T06:16:55.026Z,15.03
2023-04-14T06:19:22.790Z,12.30
2023-04-14T06:21:49.907Z,14.80
2023-04-14T06:24:17.014Z,10.07
2023-04-14T06:26:44.069Z,15.80
2023-04-14T06:29:11.976Z,15.80
2023-04-14T06:31:39.322Z,26.33
2023-04-14T06:34:06.483Z,18.33
2023-04-14T06:36:33.597Z,13.80
2023-04-14T06:39:01.456Z,14.97
2023-04-14T06:41:28.760Z,13.50
2023-04-14T06:43:56.022Z,16.43
2023-04-14T06:46:23.285Z,11.57
2023-04-14T06:48:50.884Z,11.27
2023-04-14T06:51:18.587Z,11.20
2023-04-14T06:53:45.970Z,11.27
2023-04-14T06:56:16.200Z,9.67
2023-04-14T06:58:43.659Z,11.90
2023-04-14T07:01:11.091Z,13.93
2023-04-14T07:03:39.038Z,8.40
2023-04-14T07:06:11.564Z,10.93
2023-04-14T07:08:40.731Z,7.10
2023-04-14T07:11:10.425Z,9.50
2023-04-14T07:13:39.601Z,12.63
2023-04-14T07:16:08.041Z,9.40
2023-04-14T07:18:36.434Z,10.63
2023-04-14T07:21:03.897Z,11.30
2023-04-14T07:23:33.030Z,7.80
2023-04-14T07:26:01.265Z,7.60
2023-04-14T07:28:29.357Z,6.47
2023-04-14T07:30:56.841Z,5.30
2023-04-14T07:33:25.514Z,6.90
2023-04-14T07:36:02.914Z,12.63
2023-04-14T07:38:34.438Z,12.93
2023-04-14T07:41:06.798Z,7.03
2023-04-14T07:43:37.589Z,15.57
2023-04-14T07:46:07.908Z,6.23
2023-04-14T07:48:39.367Z,8.30
2023-04-14T07:51:07.872Z,7.53
2023-04-14T07:53:40.655Z,7.27
2023-04-14T07:56:08.614Z,4.60
2023-04-14T07:58:36.025Z,6.27
2023-04-14T08:01:04.887Z,9.40
2023-04-14T08:03:32.176Z,5.30
2023-04-14T08:05:59.443Z,8.67
2023-04-14T08:08:26.567Z,5.00
2023-04-14T08:10:53.665Z,6.47
2023-04-14T08:13:20.796Z,5.87
2023-04-14T08:15:48.013Z,6.07
2023-04-14T08:18:15.585Z,6.70
2023-04-14T08:20:42.754Z,7.67
2023-04-14T08:23:11.202Z,7.90
2023-04-14T08:25:38.835Z,6.53
2023-04-14T08:28:05.960Z,12.63
2023-04-14T08:30:33.161Z,9.90
2023-04-14T08:33:00.280Z,9.47
2023-04-14T08:35:39.536Z,10.73
2023-04-14T08:38:08.858Z,12.90
2023-04-14T08:40:44.003Z,11.17
2023-04-14T08:43:13.711Z,10.90
2023-04-14T08:45:43.622Z,11.27
2023-04-14T08:48:12.148Z,13.97
2023-04-14T08:51:08.506Z,10.97
2023-04-14T08:53:43.774Z,11.93
2023-04-14T08:56:14.263Z,10.50
2023-04-14T08:58:42.062Z,9.57
2023-04-14T09:01:09.781Z,11.63
2023-04-14T09:03:38.186Z,5.97
2023-04-14T09:06:06.506Z,6.80
2023-04-14T09:08:34.729Z,6.10
2023-04-14T09:11:03.664Z,7.53
2023-04-14T09:13:31.920Z,7.97
2023-04-14T09:16:00.244Z,7.90
2023-04-14T09:18:28.870Z,6.07
2023-04-14T09:21:49.888Z,5.70
2023-04-14T09:23:47.267Z,8.73
2023-04-14T09:26:14.646Z,5.60
2023-04-14T09:28:42.114Z,5.33
2023-04-14T09:31:10.691Z,9.13
2023-04-14T09:33:50.975Z,4.53
2023-04-14T09:36:23.586Z,6.00
2023-04-14T09:38:52.067Z,5.97
2023-04-14T09:41:22.818Z,4.70
2023-04-14T09:43:50.951Z,3.60
2023-04-14T09:46:18.368Z,5.47
2023-04-14T09:48:56.499Z,5.27
2023-04-14T09:51:28.478Z,4.20
2023-04-14T09:54:06.251Z,6.43
2023-04-14T09:56:33.977Z,8.07
2023-04-14T09:59:03.144Z,4.80
2023-04-14T10:01:34.254Z,5.63
2023-04-14T10:04:03.173Z,9.50
2023-04-14T10:06:32.197Z,6.80
2023-04-14T10:09:00.794Z,7.93
2023-04-14T10:11:32.377Z,6.80
2023-04-14T10:14:06.283Z,4.50
2023-04-14T10:16:34.591Z,3.33
2023-04-14T10:19:03.252Z,4.10
2023-04-14T10:21:30.955Z,3.40
2023-04-14T10:23:58.560Z,3.57
2023-04-14T10:26:26.816Z,3.97
2023-04-14T10:28:55.797Z,4.50
2023-04-14T10:31:45.171Z,4.77
2023-04-14T10:34:15.086Z,5.53
2023-04-14T10:36:43.811Z,4.97
2023-04-14T10:39:13.198Z,6.20
2023-04-14T10:41:47.838Z,4.33
2023-04-14T10:44:25.996Z,3.70
2023-04-14T10:46:54.430Z,5.00
2023-04-14T10:49:41.717Z,4.57
2023-04-14T10:52:15.195Z,6.07
2023-04-14T10:55:08.298Z,3.83
2023-04-14T10:57:44.594Z,4.70
2023-04-14T11:00:28.956Z,3.57
2023-04-14T11:03:11.958Z,2.73
2023-04-14T11:05:51.558Z,5.10
2023-04-14T11:08:36.336Z,2.37
2023-04-14T11:11:06.553Z,2.97
2023-04-14T11:13:35.141Z,2.47
2023-04-14T11:16:07.841Z,2.50
2023-04-14T11:18:45.794Z,5.63
2023-04-14T11:21:16.493Z,5.10
2023-04-14T11:23:44.071Z,3.07
2023-04-14T11:26:16.248Z,3.40
2023-04-14T11:28:46.306Z,2.40
2023-04-14T11:31:19.297Z,2.10
2023-04-14T11:33:47.818Z,3.63
2023-04-14T11:36:15.825Z,2.60
2023-04-14T11:38:43.624Z,4.03
2023-04-14T11:41:11.143Z,3.13
2023-04-14T11:43:39.217Z,3.73
2023-04-14T11:46:08.878Z,3.33
2023-04-14T11:48:37.446Z,3.43
2023-04-14T11:51:05.660Z,4.17
2023-04-14T11:53:34.714Z,3.33
2023-04-14T11:56:02.849Z,4.00
2023-04-14T11:58:30.502Z,5.13
2023-04-14T12:00:57.909Z,8.70
2023-04-14T12:03:31.810Z,6.13
2023-04-14T12:06:01.640Z,6.43
2023-04-14T12:08:34.038Z,4.67
2023-04-14T12:11:19.501Z,4.53
2023-04-14T12:13:47.905Z,4.67
2023-04-14T12:16:17.359Z,4.10
2023-04-14T12:18:45.367Z,4.97
2023-04-14T12:21:19.143Z,5.10
2023-04-14T12:23:50.738Z,4.00
2023-04-14T12:26:20.762Z,4.10
2023-04-14T12:28:57.262Z,4.00
2023-04-14T12:31:32.031Z,4.90
2023-04-14T12:34:06.666Z,5.17
2023-04-14T12:36:48.871Z,4.30
2023-04-14T12:39:17.125Z,5.20
2023-04-14T12:41:44.526Z,5.47
2023-04-14T12:44:24.445Z,4.73
2023-04-14T12:46:53.871Z,6.33
2023-04-14T12:49:36.892Z,7.13
2023-04-14T12:52:05.682Z,4.67
2023-04-14T12:54:52.346Z,4.93
2023-04-14T12:57:22.602Z,4.27
2023-04-14T12:59:50.492Z,5.10
2023-04-14T13:02:18.850Z,5.37
2023-04-14T13:04:46.211Z,8.17
2023-04-14T13:07:13.442Z,5.07
2023-04-14T13:09:42.613Z,7.90
2023-04-14T13:12:10.159Z,4.13
2023-04-14T13:14:37.297Z,3.80
2023-04-14T13:17:06.730Z,4.97
2023-04-14T13:19:34.110Z,4.63
2023-04-14T13:22:01.399Z,4.73
2023-04-14T13:24:28.582Z,4.97
2023-04-14T13:26:55.968Z,5.37
2023-04-14T13:29:23.116Z,5.00
2023-04-14T13:31:50.397Z,3.97
2023-04-14T13:34:17.641Z,4.77
2023-04-14T13:36:45.599Z,4.73
2023-04-14T13:39:12.745Z,4.43
2023-04-14T13:41:40.176Z,4.83
2023-04-14T13:44:07.483Z,4.07
2023-04-14T13:46:40.815Z,5.00
2023-04-14T13:49:08.533Z,4.23
2023-04-14T13:51:35.790Z,5.37
2023-04-14T13:54:03.029Z,4.60
2023-04-14T13:56:30.376Z,3.70
2023-04-14T13:58:57.607Z,4.60
2023-04-14T14:01:24.786Z,3.93
2023-04-14T14:03:52.401Z,5.10
2023-04-14T14:06:19.852Z,4.87
2023-04-14T14:08:47.073Z,4.50
2023-04-14T14:11:14.268Z,4.50
2023-04-14T14:13:41.437Z,4.33
2023-04-14T14:16:09.456Z,4.07
2023-04-14T14:18:37.938Z,4.87
2023-04-14T14:21:05.776Z,4.10
2023-04-14T14:23:32.938Z,6.43
2023-04-14T14:26:00.847Z,5.40
2023-04-14T14:28:28.222Z,4.80
2023-04-14T14:30:56.058Z,5.23
2023-04-14T14:33:23.182Z,5.63
2023-04-14T14:35:50.964Z,6.53
2023-04-14T14:38:18.021Z,5.30
2023-04-14T14:40:45.106Z,4.57
2023-04-14T14:43:12.550Z,4.80
2023-04-14T14:45:39.599Z,5.63
2023-04-14T14:48:06.839Z,4.60
2023-04-14T14:50:33.955Z,5.13
2023-04-14T14:53:01.197Z,5.93
2023-04-14T14:55:28.340Z,5.47
2023-04-14T14:57:55.447Z,5.50
2023-04-14T15:00:22.576Z,5.00
2023-04-14T15:02:50.066Z,7.63
2023-04-14T15:05:17.678Z,5.93
2023-04-14T15:07:44.868Z,5.00
2023-04-14T15:10:12.038Z,5.37
2023-04-14T15:12:39.197Z,6.20
2023-04-14T15:15:07.512Z,7.53
2023-04-14T15:17:34.888Z,5.67
2023-04-14T15:20:05.285Z,6.30
2023-04-14T15:22:32.839Z,4.90
2023-04-14T15:24:59.989Z,5.00
2023-04-14T15:27:27.075Z,5.33
2023-04-14T15:29:54.801Z,5.90
2023-04-14T15:32:25.385Z,6.00
2023-04-14T15:34:56.058Z,5.30
2023-04-14T15:37:23.210Z,5.37
2023-04-14T15:39:50.801Z,5.83
2023-04-14T15:42:17.920Z,8.43
2023-04-14T15:44:45.024Z,6.23
2023-04-14T15:47:12.161Z,5.27
2023-04-14T15:49:39.208Z,6.23
2023-04-14T15:52:06.812Z,6.83
2023-04-14T15:54:34.125Z,5.77
2023-04-14T15:57:02.449Z,7.53
2023-04-14T15:59:30.244Z,5.90
2023-04-14T16:01:57.948Z,7.63
2023-04-14T16:04:25.712Z,7.73
2023-04-14T16:06:54.922Z,7.47
2023-04-14T16:09:22.067Z,5.90
2023-04-14T16:11:49.347Z,5.93
2023-04-14T16:14:16.508Z,6.20
2023-04-14T16:16:47.154Z,5.70
2023-04-14T16:19:17.614Z,6.97
2023-04-14T16:21:44.962Z,5.73
2023-04-14T16:24:12.183Z,6.10
2023-04-14T16:26:39.308Z,6.20
2023-04-14T16:29:06.793Z,7.67
2023-04-14T16:31:34.216Z,6.20
2023-04-14T16:34:01.742Z,7.57
2023-04-14T16:36:29.267Z,8.40
2023-04-14T16:38:56.634Z,9.77
2023-04-14T16:41:24.426Z,6.80
2023-04-14T16:43:51.649Z,7.57
2023-04-14T16:46:19.588Z,6.40
2023-04-14T16:48:46.733Z,8.00
2023-04-14T16:51:13.870Z,7.00
2023-04-14T16:53:40.963Z,7.10
2023-04-14T16:56:09.927Z,7.50
2023-04-14T16:58:39.001Z,8.57
2023-04-14T17:01:06.821Z,8.30
2023-04-14T17:03:34.436Z,9.90
2023-04-14T17:06:01.804Z,8.33
2023-04-14T17:08:28.893Z,8.93
2023-04-14T17:10:56.024Z,9.27
2023-04-14T17:13:23.330Z,9.37
2023-04-14T17:15:58.892Z,9.00
2023-04-14T17:18:33.586Z,10.50
2023-04-14T17:21:00.958Z,8.70
2023-04-14T17:23:28.146Z,8.80
2023-04-14T17:25:56.316Z,9.00
2023-04-14T17:28:24.006Z,9.70
2023-04-14T17:30:51.267Z,10.20
2023-04-14T17:33:20.024Z,10.80
2023-04-14T17:35:47.256Z,10.33
2023-04-14T17:38:14.380Z,9.90
2023-04-14T17:40:41.771Z,11.60
2023-04-14T17:43:09.202Z,8.57
2023-04-14T17:45:37.386Z,9.70
2023-04-14T17:48:05.503Z,8.93
2023-04-14T17:50:34.270Z,9.43
2023-04-14T17:53:01.964Z,9.07
2023-04-14T17:55:29.191Z,9.93
2023-04-14T17:57:56.352Z,9.77
2023-04-14T18:00:24.298Z,10.30
2023-04-14T18:02:52.064Z,9.87
2023-04-14T18:05:19.327Z,10.23
2023-04-14T18:07:47.002Z,10.63
2023-04-14T18:10:14.078Z,9.13
2023-04-14T18:12:41.234Z,9.83
2023-04-14T18:15:10.881Z,10.27
2023-04-14T18:17:38.442Z,8.43
2023-04-14T18:20:06.736Z,9.03
2023-04-14T18:22:34.337Z,9.20
2023-04-14T18:25:01.528Z,10.60
2023-04-14T18:29:58.946Z,8.27
2023-04-14T18:32:27.634Z,8.70
2023-04-14T18:34:54.883Z,9.70
2023-04-14T18:37:22.230Z,9.40
2023-04-14T18:39:49.690Z,8.73
2023-04-14T18:42:17.063Z,8.50
2023-04-14T18:44:44.641Z,8.23
2023-04-14T18:47:11.876Z,9.07
2023-04-14T18:49:39.741Z,8.40
2023-04-14T18:52:07.546Z,8.50
2023-04-14T18:54:34.802Z,9.90
2023-04-14T18:57:03.349Z,8.30
2023-04-14T18:59:30.653Z,8.80
2023-04-14T19:01:58.291Z,8.73
2023-04-14T19:04:25.971Z,9.97
2023-04-14T19:06:53.133Z,9.40
2023-04-14T19:09:20.311Z,8.10
2023-04-14T19:11:48.254Z,7.90
2023-04-14T19:14:15.505Z,9.13
2023-04-14T19:16:42.669Z,8.70
2023-04-14T19:19:10.492Z,9.60
2023-04-14T19:21:37.573Z,10.43
2023-04-14T19:24:04.912Z,10.33
2023-04-14T19:26:34.320Z,9.03
2023-04-14T19:29:01.827Z,9.93
2023-04-14T19:31:29.219Z,8.33
2023-04-14T19:33:56.661Z,9.40
2023-04-14T19:36:24.058Z,9.37
2023-04-14T19:38:51.718Z,10.57
2023-04-14T19:41:19.501Z,9.87
2023-04-14T19:43:46.892Z,8.97
2023-04-14T19:46:14.127Z,9.43
2023-04-14T19:48:41.412Z,9.50
2023-04-14T19:51:09.303Z,9.13
2023-04-14T19:53:36.587Z,7.83
2023-04-14T19:56:05.669Z,7.10
2023-04-14T19:58:33.112Z,8.50
2023-04-14T20:01:01.149Z,8.30
2023-04-14T20:03:28.604Z,7.93
2023-04-14T20:05:57.581Z,9.60
2023-04-14T20:08:26.498Z,7.53
2023-04-14T20:10:54.996Z,7.63
2023-04-14T20:13:26.839Z,6.10
2023-04-14T20:15:55.085Z,7.50
2023-04-14T20:18:26.447Z,8.10
2023-04-14T20:20:54.866Z,8.00
2023-04-14T20:23:22.891Z,7.73
2023-04-14T20:25:51.398Z,7.90
2023-04-14T20:28:20.216Z,7.77
2023-04-14T20:30:49.531Z,7.97
2023-04-14T20:33:18.612Z,6.50
2023-04-14T20:35:46.018Z,7.27
2023-04-14T20:38:15.314Z,8.27
2023-04-14T20:40:43.513Z,7.53
2023-04-14T20:43:11.051Z,10.23
2023-04-14T20:45:39.391Z,10.50
2023-04-14T20:48:07.869Z,7.93
2023-04-14T20:50:35.082Z,6.33
2023-04-14T20:53:02.236Z,6.43
2023-04-14T20:55:29.482Z,6.60
2023-04-14T20:57:56.642Z,6.60
2023-04-14T21:00:23.949Z,6.60
2023-04-14T21:02:52.080Z,6.40
2023-04-14T21:05:20.001Z,6.20
2023-04-14T21:07:47.853Z,7.70
2023-04-14T21:10:15.637Z,6.00
2023-04-14T21:14:57.867Z,5.97
2023-04-14T21:15:56.365Z,6.20
2023-04-14T21:18:17.148Z,5.73
2023-04-14T21:20:44.277Z,7.90
2023-04-14T21:23:11.451Z,5.67
2023-04-14T21:25:38.631Z,5.50
2023-04-14T21:28:06.194Z,5.70
2023-04-14T21:30:34.021Z,6.00
2023-04-14T21:33:01.267Z,6.30
2023-04-14T21:35:28.482Z,5.30
2023-04-14T21:37:55.763Z,5.03
2023-04-14T21:40:23.119Z,5.03
2023-04-14T21:42:50.878Z,4.60
2023-04-14T21:45:18.984Z,3.70
2023-04-14T21:47:47.150Z,5.03
2023-04-14T21:50:17.409Z,6.00
2023-04-14T21:52:44.627Z,5.63
2023-04-14T21:55:12.343Z,11.13
2023-04-14T21:57:45.127Z,5.47
2023-04-14T22:00:20.355Z,5.10
2023-04-14T22:02:48.375Z,5.60
2023-04-14T22:05:15.750Z,4.97
2023-04-14T22:07:42.972Z,4.80
2023-04-14T22:10:11.822Z,5.23
2023-04-14T22:12:42.560Z,4.07
2023-04-14T22:15:10.595Z,3.47
2023-04-14T22:17:39.052Z,3.17
2023-04-14T22:20:07.713Z,4.13
2023-04-14T22:22:35.807Z,3.33
2023-04-14T22:25:04.665Z,4.63
2023-04-14T22:27:34.375Z,4.70
2023-04-14T22:30:02.797Z,3.67
2023-04-14T22:32:29.975Z,3.70
2023-04-14T22:34:57.238Z,4.13
2023-04-14T22:37:24.286Z,3.23
2023-04-14T22:39:51.700Z,3.30
2023-04-14T22:42:18.901Z,2.90
2023-04-14T22:44:48.086Z,3.73
2023-04-14T22:47:15.585Z,3.90
2023-04-14T22:49:42.717Z,2.87
2023-04-14T22:52:09.935Z,3.93
2023-04-14T22:54:37.127Z,3.63
2023-04-14T22:57:04.519Z,3.23
2023-04-14T22:59:32.519Z,3.37
2023-04-14T23:01:59.792Z,3.10
2023-04-14T23:04:27.190Z,2.90
2023-04-14T23:06:54.668Z,2.90
2023-04-14T23:09:21.937Z,2.73
2023-04-14T23:11:49.421Z,1.80
2023-04-14T23:14:16.990Z,2.67
2023-04-14T23:16:44.100Z,1.90
2023-04-14T23:19:11.682Z,2.40
2023-04-14T23:21:38.894Z,2.17
2023-04-14T23:24:07.470Z,1.87
2023-04-14T23:26:34.772Z,2.43
2023-04-14T23:29:02.364Z,1.80
2023-04-14T23:31:29.830Z,1.87
2023-04-14T23:33:57.158Z,1.70
2023-04-14T23:36:24.354Z,2.03
2023-04-14T23:38:51.590Z,2.33
2023-04-14T23:41:19.174Z,2.60
2023-04-14T23:43:49.090Z,1.97
2023-04-14T23:46:16.375Z,1.50
2023-04-14T23:48:43.802Z,1.60
2023-04-14T23:51:17.293Z,2.70
2023-04-14T23:53:45.931Z,2.20
2023-04-14T23:56:13.068Z,1.60
2023-04-14T23:58:40.228Z,2.03
